Participated 2 times
Between 1986 and 1987
Stefano Allocchio, Italy
Tour de France 2026 starts from Barcelona, Spain in

Stats and Facts from
Tour de France.

2026   2025   2024   2023  2022  2021  2020  2019   2018  2017   2016   2015  2014  2013   2012   2011  2010   2009   2008   2007   2006   2005   2004   2003   2002   2001   2000   1999   1998   1997  1996   1995   1994   1993   1992  1991   1990   1989   1988   1987   1986   1985   1984   1983  1982  1981   1980   1979  1978  1977   1976  1975  1974  1973   1972   1971   1970  1969   1968   1967   1966   1965  1964  1963   1962   1961   1960   1959   1958   1957  1956   1955   1954   1953   1952  1951  1950  1949   1948  1947  1939   1938   1937   1936   1935   1934   1933  1932   1931   1930  1929   1928   1927   1926  1925  1924  1923   1922   1921   1920   1919  1914   1913   1912   1911   1910  1909   1908   1907   1906  1905  1904   1903 

Tourstats
Sitemap

After stage 21 - 2025:
 16451 starters.
  5464 different riders.
  689 teams.
  2398 stages.
  470 restdays.
  466506.50 km.
  5925 abandoned riders.

Click map for 1959 route.
Facts from Tour de France 1959
  |   Stages.  |   Stage winners.  |   Days in jerseys.  |   Teams.  |   All riders.  |   All riders by age.  |   All riders from.  |  

  |   Rookies.  |   Withdrawls.  |   Average speed.  |   GC.  |   Polka  |   Green  |   White  |   Summits. (In tour)  |   Miscellaneous.  |  

Stage 9 on July 3rd. 1959
Pick a stage:  1  2  3  4  5  6  7  8  9  10  11  12  13  14  15  16  17  18  19  20  21  22  

After stage 9:    Eddy Pauwels  
  BordeauxBayonne | Dist: 204.00km. | Winner: Marcel Queheille

Podium

Average speed for all riders in stage:  37,462 km./hr.

1
 Marcel Queheille  Ouest-Sud Ouest05h 19' 17"=38,336  km/h

2
 Fernando Manzaneque  Spain05h 20' 44"+  00:01:27 =38,163  km/h

3
 Nello Fabbri  Italy05h 20' 44"+  00:01:27 =38,163  km/h

4  Jos Hoevenaers  Belgium05h 20' 44"+  00:01:27 =38,163  km/h

5  Jean Graczyk  France05h 20' 44"+  00:01:27 =38,163  km/h

6  Henri Anglade  Centre-Midi05h 20' 44"+  00:01:27 =38,163  km/h

7  Jacques Anquetil  France05h 20' 44"+  00:01:27 =38,163  km/h

8  Michel Van Aerde  Belgium05h 20' 44"+  00:01:27 =38,163  km/h

9  Federico Bahamontes  Spain05h 20' 44"+  00:01:27 =38,163  km/h

10  Roger Rivière  France05h 20' 44"+  00:01:27 =38,163  km/h

11  Pierino Baffi  Italy05h 20' 44"+  00:01:27 =38,163  km/h

12  Lothar Friedrich  Switzerland-Germany05h 20' 44"+  00:01:27 =38,163  km/h

13  Jean-Baptiste Dotto  Centre-Midi05h 20' 44"+  00:01:27 =38,163  km/h

14  René Pavard  Paris-Nord Est05h 20' 44"+  00:01:27 =38,163  km/h

15  Eddy Pauwels  Belgium05h 20' 44"+  00:01:27 =38,163  km/h

16  Ernesto Bono  Italy05h 20' 44"+  00:01:27 =38,163  km/h

17  Jan Adriaensens  Belgium05h 20' 44"+  00:01:27 =38,163  km/h

18  Ercole Baldini  Italy05h 20' 44"+  00:01:27 =38,163  km/h

19  Joseph Planckaert  Belgium05h 20' 44"+  00:01:27 =38,163  km/h

20  Giuseppe Fallarini  Italy05h 20' 44"+  00:01:27 =38,163  km/h

21  Charly Gaul  Holland-Luxembourg05h 20' 44"+  00:01:27 =38,163  km/h

22  Marcel Janssens  Belgium05h 20' 44"+  00:01:27 =38,163  km/h

23  Louis Bergaud  Centre-Midi05h 20' 44"+  00:01:27 =38,163  km/h

24  Jean Brankart  Belgium05h 20' 44"+  00:01:27 =38,163  km/h

25  Max Bleneau  Ouest-Sud Ouest05h 20' 44"+  00:01:27 =38,163  km/h

26  Louison Bobet  France05h 20' 44"+  00:01:27 =38,163  km/h

27  Arrigo Padovan  Italy05h 20' 44"+  00:01:27 =38,163  km/h

28  Martin Van Geneugden  Belgium05h 24' 03"+  00:04:46 =37,772  km/h

29  José-Sousa Cardoso  Internations05h 25' 11"+  00:05:54 =37,640  km/h

30  Rolf Graf  Switzerland-Germany05h 25' 40"+  00:06:23 =37,584  km/h

31  Waldemaro Bartolozzi  Italy05h 26' 10"+  00:06:53 =37,527  km/h

32  Aldo Bolzan  Holland-Luxembourg05h 26' 10"+  00:06:53 =37,527  km/h

33  Brian Robinson  Internations05h 26' 10"+  00:06:53 =37,527  km/h

34  Jean Gainche  Ouest-Sud Ouest05h 26' 28"+  00:07:11 =37,492  km/h

35  Jesús Galdeano  Spain05h 27' 24"+  00:08:07 =37,385  km/h

36  Frans Reitz  Switzerland-Germany05h 27' 24"+  00:08:07 =37,385  km/h

37  Albert Bouvet  Ouest-Sud Ouest05h 27' 24"+  00:08:07 =37,385  km/h

38  Aurelio Cestari  Italy05h 27' 24"+  00:08:07 =37,385  km/h

39  Kamiel Buysse  Belgium05h 27' 24"+  00:08:07 =37,385  km/h

40  Jean Hoffmann  Paris-Nord Est05h 28' 05"+  00:08:48 =37,308  km/h

41  Michel Dejouhannet  Centre-Midi05h 28' 09"+  00:08:52 =37,300  km/h

42  André Darrigade  France05h 28' 09"+  00:08:52 =37,300  km/h

43  Max Schellenberg  Switzerland-Germany05h 28' 09"+  00:08:52 =37,300  km/h

44  Bram Kool  Holland-Luxembourg05h 28' 09"+  00:08:52 =37,300  km/h

45  René Marigil  Spain05h 28' 09"+  00:08:52 =37,300  km/h

46  Gerard Saint  Ouest-Sud Ouest05h 28' 09"+  00:08:52 =37,300  km/h

47  Michele Gismondi  Italy05h 28' 09"+  00:08:52 =37,300  km/h

48  Michel Vermeulin  Paris-Nord Est05h 28' 09"+  00:08:52 =37,300  km/h

49  José Herrero  Spain05h 28' 09"+  00:08:52 =37,300  km/h

50  Roger Hassenforder  France05h 28' 09"+  00:08:52 =37,300  km/h

51  Joseph Groussard  Ouest-Sud Ouest05h 28' 09"+  00:08:52 =37,300  km/h

52  Antonio Suarez  Spain05h 28' 09"+  00:08:52 =37,300  km/h

53  Jaap Kersten  Holland-Luxembourg05h 28' 09"+  00:08:52 =37,300  km/h

54  Guillaume Van Tongerloo  Belgium05h 28' 09"+  00:08:52 =37,300  km/h

55  José Gomez del Moral  Spain05h 28' 09"+  00:08:52 =37,300  km/h

56  Félix Le Buhotel  Ouest-Sud Ouest05h 28' 09"+  00:08:52 =37,300  km/h

57  Roberto Falaschi  Italy05h 28' 09"+  00:08:52 =37,300  km/h

58  Marcel Ernzer  Holland-Luxembourg05h 28' 09"+  00:08:52 =37,300  km/h

59  Vito Favero  Italy05h 28' 09"+  00:08:52 =37,300  km/h

60  Edouard Delberghe  Paris-Nord Est05h 28' 09"+  00:08:52 =37,300  km/h

61  François Mahé  Ouest-Sud Ouest05h 28' 09"+  00:08:52 =37,300  km/h

62  Mathias Löder  Switzerland-Germany05h 28' 09"+  00:08:52 =37,300  km/h

63  Fred De Bruyne  Belgium05h 28' 09"+  00:08:52 =37,300  km/h

64  Antonio Baptista  Internations05h 28' 09"+  00:08:52 =37,300  km/h

65  Dino Bruni  Italy05h 28' 09"+  00:08:52 =37,300  km/h

66  Joseph Thomin  Ouest-Sud Ouest05h 28' 09"+  00:08:52 =37,300  km/h

67  Victor Sutton  Internations05h 28' 09"+  00:08:52 =37,300  km/h

68  Gerrit Voorting  Holland-Luxembourg05h 28' 09"+  00:08:52 =37,300  km/h

69  Daniël de Groot  Holland-Luxembourg05h 28' 09"+  00:08:52 =37,300  km/h

70  Louis Bisilliat  Centre-Midi05h 28' 09"+  00:08:52 =37,300  km/h

71  Valentin Huot  Centre-Midi05h 28' 09"+  00:08:52 =37,300  km/h

72  Piet de Jongh  Holland-Luxembourg05h 28' 09"+  00:08:52 =37,300  km/h

73  Carmelo Morales  Spain05h 28' 09"+  00:08:52 =37,300  km/h

74  Robert Cazala  France05h 28' 09"+  00:08:52 =37,300  km/h

75  Raymond Mastrotto  France05h 28' 09"+  00:08:52 =37,300  km/h

76  Raymond Hoorelbeke  Paris-Nord Est05h 28' 09"+  00:08:52 =37,300  km/h

77  Piet Damen  Holland-Luxembourg05h 28' 09"+  00:08:52 =37,300  km/h

78  Settimo Sabbadini  Ouest-Sud Ouest05h 28' 09"+  00:08:52 =37,300  km/h

79  René Privat  France05h 28' 09"+  00:08:52 =37,300  km/h

80  Tadeusz Wierucki  Internations05h 28' 09"+  00:08:52 =37,300  km/h

81  Seamus Elliott  Internations05h 28' 09"+  00:08:52 =37,300  km/h

82  Armand Desmet  Belgium05h 28' 09"+  00:08:52 =37,300  km/h

83  Fernand Picot  Ouest-Sud Ouest05h 28' 09"+  00:08:52 =37,300  km/h

84  Luis Otaño  Spain05h 28' 09"+  00:08:52 =37,300  km/h

85  Aniceto Utset  Spain05h 28' 09"+  00:08:52 =37,300  km/h

86  Piet van Est  Holland-Luxembourg05h 28' 09"+  00:08:52 =37,300  km/h

87  Marcel Rohrbach  Centre-Midi05h 28' 09"+  00:08:52 =37,300  km/h

88  Adolf Christian  Internations05h 28' 09"+  00:08:52 =37,300  km/h

89  Jean-Claude Annaert  Paris-Nord Est05h 28' 09"+  00:08:52 =37,300  km/h

90  Stéphane Lach  Paris-Nord Est05h 28' 09"+  00:08:52 =37,300  km/h

91  André Le Dissez  Paris-Nord Est05h 28' 09"+  00:08:52 =37,300  km/h

92  Jean Forestier  Centre-Midi05h 28' 09"+  00:08:52 =37,300  km/h

93  Richard Durlacher  Internations05h 28' 09"+  00:08:52 =37,300  km/h

94  Martin van der Borgh  Holland-Luxembourg05h 28' 09"+  00:08:52 =37,300  km/h

95  Jean Robic  Paris-Nord Est05h 28' 09"+  00:08:52 =37,300  km/h

96  Julio San Emeterio  Spain05h 28' 09"+  00:08:52 =37,300  km/h

97  Manuel Busto  Centre-Midi05h 28' 09"+  00:08:52 =37,300  km/h

98  Jean-Claude Lefebvre  Paris-Nord Est05h 28' 09"+  00:08:52 =37,300  km/h

99  Louis Rostollan  Centre-Midi05h 28' 09"+  00:08:52 =37,300  km/h

100  Ernst Traxel  Switzerland-Germany05h 28' 09"+  00:08:52 =37,300  km/h

101  Jean-Pierre Schmitz  Holland-Luxembourg05h 28' 09"+  00:08:52 =37,300  km/h

102  Francis Pipelin  Ouest-Sud Ouest05h 28' 09"+  00:08:52 =37,300  km/h

103  Orphée Meneghini  Paris-Nord Est05h 28' 09"+  00:08:52 =37,300  km/h

104  Ernest Ecuyer  Switzerland-Germany05h 28' 09"+  00:08:52 =37,300  km/h

105  Bernard Gauthier  Centre-Midi05h 28' 09"+  00:08:52 =37,300  km/h

106  Juan Campillo  Spain05h 33' 24"+  00:14:07 =36,713  km/h

107  Raphaël Geminiani  France05h 33' 27"+  00:14:10 =36,707  km/h

108  Pierre Everaert  France05h 40' 54"+  00:21:37 =35,905  km/h

109  Jean Stablinski  France05h 41' 00"+  00:21:43 =35,894  km/h

110  Attilio Moresi  Switzerland-Germany05h 42' 39"+  00:23:22 =35,722  km/h

111  Emmanuel Plattner  Switzerland-Germany05h 42' 39"+  00:23:22 =35,722  km/h


Withdrawls: 1
 RiderTeamReason
123   Arne Kjeld Jonsson InternationsDid not finish
Todays birthdays.

1889 • Adolphe Landon
1890 • Jules Lebreton
1904 • Julien Grujon
1909 • Erich Metze
1926 • Giovanni Rossi
1928 • Serge Blusson
1928 • Alois Vansteenkiste
1931 • André Dupré
1934 • Alfred Rüegg
1962 • Francisco Espinosa
1962 • Paul Kimmage
1963 • Federico Muñoz
1966 • Andrea Tafi
1971 • Emmanuel Magnien
1973 • Paolo Savoldelli
1985 • Mikhail Ignatyev

 

Optimized for Chrome - Edge
and Opera browsers.